createdAt,value
2023-05-19T00:01:44.886Z,7.56
2023-05-19T00:04:46.923Z,7.55
2023-05-19T00:07:52.037Z,7.53
2023-05-19T00:10:54.052Z,7.52
2023-05-19T00:13:57.385Z,7.51
2023-05-19T00:16:59.371Z,7.49
2023-05-19T00:20:01.113Z,7.47
2023-05-19T00:23:02.780Z,7.45
2023-05-19T00:26:04.342Z,7.43
2023-05-19T00:29:06.027Z,7.42
2023-05-19T00:32:07.716Z,7.42
2023-05-19T00:35:09.576Z,7.41
2023-05-19T00:38:11.245Z,7.40
2023-05-19T00:41:12.991Z,7.39
2023-05-19T00:44:14.556Z,7.39
2023-05-19T00:47:16.190Z,7.38
2023-05-19T00:50:17.953Z,7.36
2023-05-19T00:53:19.946Z,7.36
2023-05-19T00:56:21.872Z,7.36
2023-05-19T00:59:23.572Z,7.36
2023-05-19T01:02:25.224Z,7.36
2023-05-19T01:05:27.019Z,7.34
2023-05-19T01:08:28.531Z,7.35
2023-05-19T01:11:30.276Z,7.35
2023-05-19T01:14:31.930Z,7.34
2023-05-19T01:17:33.480Z,7.34
2023-05-19T01:20:39.414Z,7.34
2023-05-19T01:23:52.356Z,7.34
2023-05-19T01:27:17.030Z,7.35
2023-05-19T01:30:34.006Z,7.35
2023-05-19T01:33:36.156Z,7.36
2023-05-19T01:36:38.679Z,7.36
2023-05-19T01:39:41.068Z,7.35
2023-05-19T01:42:42.822Z,7.36
2023-05-19T01:45:45.344Z,7.37
2023-05-19T01:48:47.596Z,7.38
2023-05-19T01:51:49.573Z,7.40
2023-05-19T01:54:51.137Z,7.39
2023-05-19T01:57:52.821Z,7.38
2023-05-19T02:01:08.202Z,7.39
2023-05-19T02:04:15.652Z,7.40
2023-05-19T02:07:21.466Z,7.41
2023-05-19T02:10:27.793Z,7.43
2023-05-19T02:13:31.818Z,7.43
2023-05-19T02:16:33.765Z,7.42
2023-05-19T02:19:38.769Z,7.43
2023-05-19T02:22:40.369Z,7.41
2023-05-19T02:25:42.085Z,7.40
2023-05-19T02:28:43.806Z,7.41
2023-05-19T02:31:45.483Z,7.41
2023-05-19T02:34:47.286Z,7.40
2023-05-19T02:37:48.955Z,7.41
2023-05-19T02:40:52.050Z,7.40
2023-05-19T02:43:53.824Z,7.41
2023-05-19T02:46:55.391Z,7.42
2023-05-19T02:49:56.994Z,7.43
2023-05-19T02:52:58.646Z,7.45
2023-05-19T02:56:00.240Z,7.45
2023-05-19T02:59:01.852Z,7.47
2023-05-19T03:02:03.761Z,7.48
2023-05-19T03:05:05.987Z,7.49
2023-05-19T03:08:07.699Z,7.51
2023-05-19T03:11:09.380Z,7.53
2023-05-19T03:14:10.993Z,7.56
2023-05-19T03:17:12.669Z,7.59
2023-05-19T03:20:14.452Z,7.61
2023-05-19T03:23:16.134Z,7.65
2023-05-19T03:26:17.745Z,7.68
2023-05-19T03:29:19.354Z,7.73
2023-05-19T03:32:21.349Z,7.73
2023-05-19T03:35:23.231Z,7.75
2023-05-19T03:38:25.133Z,7.80
2023-05-19T03:41:26.755Z,7.85
2023-05-19T03:44:28.388Z,7.90
2023-05-19T03:47:30.014Z,7.94
2023-05-19T03:50:31.845Z,7.96
2023-05-19T03:53:33.786Z,7.95
2023-05-19T03:56:39.119Z,8.00
2023-05-19T03:59:40.739Z,8.04
2023-05-19T04:02:42.589Z,8.10
2023-05-19T04:05:44.679Z,8.13
2023-05-19T04:08:46.434Z,8.18
2023-05-19T04:11:51.115Z,8.23
2023-05-19T04:14:52.715Z,8.30
2023-05-19T04:17:54.414Z,8.35
2023-05-19T04:20:56.198Z,8.39
2023-05-19T04:23:57.865Z,8.43
2023-05-19T04:26:59.947Z,8.46
2023-05-19T04:30:01.964Z,8.45
2023-05-19T04:33:03.623Z,8.43
2023-05-19T04:36:06.899Z,8.45
2023-05-19T04:39:08.556Z,8.49
2023-05-19T04:42:10.218Z,8.42
2023-05-19T04:45:12.177Z,8.48
2023-05-19T04:48:13.806Z,8.48
2023-05-19T04:51:15.672Z,8.48
2023-05-19T04:54:17.547Z,8.50
2023-05-19T04:57:19.139Z,8.57
2023-05-19T05:00:21.542Z,8.64
2023-05-19T05:03:23.949Z,8.72
2023-05-19T05:06:25.992Z,8.76
2023-05-19T05:09:27.981Z,8.79
2023-05-19T05:12:29.812Z,8.78
2023-05-19T05:15:31.746Z,8.74
2023-05-19T05:18:34.541Z,8.75
2023-05-19T05:21:36.551Z,8.75
2023-05-19T05:24:38.496Z,8.76
2023-05-19T05:27:40.174Z,8.79
2023-05-19T05:30:41.760Z,8.78
2023-05-19T05:33:43.639Z,8.81
2023-05-19T05:36:45.468Z,8.87
2023-05-19T05:39:47.205Z,8.89
2023-05-19T05:42:49.017Z,8.97
2023-05-19T05:45:50.641Z,9.04
2023-05-19T05:48:52.704Z,9.09
2023-05-19T05:55:05.186Z,9.06
2023-05-19T05:58:06.968Z,9.11
2023-05-19T06:01:12.009Z,9.21
2023-05-19T06:04:16.679Z,9.28
2023-05-19T06:07:18.278Z,9.34
2023-05-19T06:10:20.100Z,9.34
2023-05-19T06:13:21.787Z,9.35
2023-05-19T06:16:23.469Z,9.39
2023-05-19T06:19:25.449Z,9.44
2023-05-19T06:22:27.330Z,9.55
2023-05-19T06:25:28.875Z,9.59
2023-05-19T06:28:30.532Z,9.67
2023-05-19T06:31:32.069Z,9.67
2023-05-19T06:34:33.897Z,9.70
2023-05-19T06:37:35.537Z,9.67
2023-05-19T06:40:37.238Z,9.72
2023-05-19T06:43:38.866Z,9.81
2023-05-19T06:46:40.506Z,9.88
2023-05-19T06:49:42.513Z,10.00
2023-05-19T06:52:44.158Z,10.13
2023-05-19T06:55:58.045Z,10.06
2023-05-19T06:59:00.871Z,10.10
2023-05-19T07:02:02.596Z,10.05
2023-05-19T07:05:05.283Z,10.08
2023-05-19T07:08:06.874Z,10.09
2023-05-19T07:11:08.538Z,10.13
2023-05-19T07:14:10.153Z,10.18
2023-05-19T07:17:11.922Z,10.18
2023-05-19T07:20:13.626Z,10.11
2023-05-19T07:23:17.282Z,10.08
2023-05-19T07:26:19.150Z,10.06
2023-05-19T07:29:20.865Z,10.07
2023-05-19T07:32:22.708Z,10.08
2023-05-19T07:35:24.935Z,10.18
2023-05-19T07:38:26.654Z,10.40
2023-05-19T07:41:28.316Z,10.56
2023-05-19T07:44:30.005Z,10.67
2023-05-19T07:47:31.804Z,10.63
2023-05-19T07:50:33.909Z,10.71
2023-05-19T07:53:36.729Z,10.84
2023-05-19T07:56:38.407Z,10.93
2023-05-19T07:59:40.315Z,10.90
2023-05-19T08:02:42.003Z,10.91
2023-05-19T08:05:44.141Z,10.86
2023-05-19T08:08:45.691Z,10.83
2023-05-19T08:11:47.405Z,10.78
2023-05-19T08:14:49.077Z,10.74
2023-05-19T08:17:50.771Z,10.69
2023-05-19T08:20:52.539Z,10.61
2023-05-19T08:23:54.106Z,10.63
2023-05-19T08:26:55.862Z,10.72
2023-05-19T08:29:57.614Z,11.10
2023-05-19T08:32:59.330Z,11.49
2023-05-19T08:36:00.965Z,11.73
2023-05-19T08:39:02.676Z,11.96
2023-05-19T08:42:04.664Z,12.06
2023-05-19T08:45:06.990Z,12.09
2023-05-19T08:48:08.981Z,12.04
2023-05-19T08:51:18.251Z,11.89
2023-05-19T08:54:20.399Z,11.89
2023-05-19T08:57:23.328Z,11.83
2023-05-19T09:00:25.256Z,11.71
2023-05-19T09:03:27.410Z,11.56
2023-05-19T09:06:29.317Z,11.49
2023-05-19T09:09:30.997Z,11.36
2023-05-19T09:12:33.580Z,11.29
2023-05-19T09:15:36.112Z,11.18
2023-05-19T09:18:39.068Z,11.04
2023-05-19T09:21:40.878Z,11.05
2023-05-19T09:24:42.489Z,11.21
2023-05-19T09:27:44.233Z,11.27
2023-05-19T09:30:45.860Z,11.30
2023-05-19T09:33:47.513Z,11.24
2023-05-19T09:36:49.382Z,11.07
2023-05-19T09:39:51.077Z,11.04
2023-05-19T09:42:53.728Z,11.10
2023-05-19T09:45:59.477Z,11.26
2023-05-19T09:49:09.020Z,11.38
2023-05-19T09:52:11.207Z,11.46
2023-05-19T09:55:14.593Z,11.43
2023-05-19T09:58:17.150Z,11.24
2023-05-19T10:01:19.112Z,11.06
2023-05-19T10:04:21.205Z,11.07
2023-05-19T10:07:23.286Z,11.25
2023-05-19T10:10:25.157Z,11.40
2023-05-19T10:13:27.086Z,11.48
2023-05-19T10:16:29.818Z,11.48
2023-05-19T10:19:31.506Z,11.52
2023-05-19T10:22:34.081Z,11.59
2023-05-19T10:25:36.177Z,11.65
2023-05-19T10:28:39.713Z,11.74
2023-05-19T10:31:41.874Z,11.84
2023-05-19T10:34:58.788Z,12.00
2023-05-19T10:38:38.243Z,12.32
2023-05-19T10:41:49.690Z,12.39
2023-05-19T10:45:13.825Z,12.26
2023-05-19T10:48:16.509Z,12.37
2023-05-19T10:51:18.213Z,12.42
2023-05-19T10:54:39.468Z,12.40
2023-05-19T10:57:54.018Z,12.32
2023-05-19T11:01:00.564Z,12.24
2023-05-19T11:04:06.150Z,12.20
2023-05-19T11:07:09.555Z,12.08
2023-05-19T11:10:11.945Z,12.04
2023-05-19T11:13:20.401Z,12.08
2023-05-19T11:16:29.699Z,12.06
2023-05-19T11:19:32.902Z,12.15
2023-05-19T11:22:34.670Z,12.22
2023-05-19T11:25:47.392Z,12.24
2023-05-19T11:28:49.174Z,12.39
2023-05-19T11:31:52.086Z,12.52
2023-05-19T11:34:55.476Z,12.59
2023-05-19T11:37:57.279Z,12.69
2023-05-19T11:40:59.021Z,12.77
2023-05-19T11:44:00.649Z,12.76
2023-05-19T11:47:02.305Z,12.66
2023-05-19T11:50:04.115Z,12.53
2023-05-19T11:53:06.415Z,12.44
2023-05-19T11:56:08.184Z,12.55
2023-05-19T11:59:10.010Z,12.61
2023-05-19T12:02:19.884Z,12.51
2023-05-19T12:05:23.520Z,12.27
2023-05-19T12:08:25.570Z,12.13
2023-05-19T12:11:28.760Z,12.25
2023-05-19T12:14:30.725Z,12.38
2023-05-19T12:17:32.729Z,12.50
2023-05-19T12:20:34.588Z,12.57
2023-05-19T12:23:36.534Z,12.65
2023-05-19T12:26:38.189Z,12.59
2023-05-19T12:29:40.579Z,12.68
2023-05-19T12:32:43.303Z,12.78
2023-05-19T12:35:45.660Z,12.85
2023-05-19T12:38:47.395Z,12.89
2023-05-19T12:41:49.032Z,12.79
2023-05-19T12:44:51.639Z,12.70
2023-05-19T12:47:53.280Z,12.74
2023-05-19T12:50:54.929Z,12.76
2023-05-19T12:53:56.596Z,12.60
2023-05-19T12:56:59.044Z,12.62
2023-05-19T13:00:21.535Z,12.71
2023-05-19T13:03:23.266Z,12.74
2023-05-19T13:06:25.099Z,12.77
2023-05-19T13:09:26.719Z,12.86
2023-05-19T13:12:28.616Z,13.00
2023-05-19T13:15:32.129Z,13.08
2023-05-19T13:18:33.718Z,13.10
2023-05-19T13:21:35.425Z,13.01
2023-05-19T13:24:36.966Z,12.91
2023-05-19T13:27:38.608Z,12.82
2023-05-19T13:30:41.265Z,12.77
2023-05-19T13:33:42.895Z,12.71
2023-05-19T13:36:44.547Z,12.61
2023-05-19T13:39:46.187Z,12.59
2023-05-19T13:42:47.812Z,12.55
2023-05-19T13:45:49.557Z,12.50
2023-05-19T13:48:51.189Z,12.52
2023-05-19T13:51:56.489Z,12.54
2023-05-19T13:54:58.057Z,12.55
2023-05-19T13:57:59.739Z,12.53
2023-05-19T14:01:01.327Z,12.51
2023-05-19T14:04:03.056Z,12.51
2023-05-19T14:07:08.742Z,12.50
2023-05-19T14:10:10.595Z,12.49
2023-05-19T14:13:31.530Z,12.43
2023-05-19T14:19:35.562Z,12.50
2023-05-19T14:22:37.229Z,12.51
2023-05-19T14:25:38.857Z,12.52
2023-05-19T14:28:40.674Z,12.44
2023-05-19T14:31:42.391Z,12.35
2023-05-19T14:34:44.075Z,12.38
2023-05-19T14:37:45.711Z,12.42
2023-05-19T14:40:47.484Z,12.33
2023-05-19T14:43:49.063Z,12.17
2023-05-19T14:46:50.819Z,12.16
2023-05-19T14:49:52.448Z,12.20
2023-05-19T14:52:54.421Z,12.23
2023-05-19T14:55:56.100Z,12.21
2023-05-19T14:58:57.770Z,12.20
2023-05-19T15:01:59.462Z,12.18
2023-05-19T15:05:01.080Z,12.16
2023-05-19T15:08:04.290Z,12.12
2023-05-19T15:11:07.711Z,12.10
2023-05-19T15:14:09.356Z,12.10
2023-05-19T15:17:11.105Z,12.10
2023-05-19T15:20:12.808Z,12.11
2023-05-19T15:23:14.385Z,12.14
2023-05-19T15:26:16.106Z,12.19
2023-05-19T15:29:17.848Z,12.18
2023-05-19T15:32:19.416Z,12.02
2023-05-19T15:35:21.063Z,11.89
2023-05-19T15:38:22.758Z,11.86
2023-05-19T15:41:24.565Z,11.83
2023-05-19T15:44:28.791Z,11.73
2023-05-19T15:47:30.770Z,11.63
2023-05-19T15:50:32.520Z,11.54
2023-05-19T15:53:34.259Z,11.56
2023-05-19T15:56:36.023Z,11.57
2023-05-19T15:59:37.669Z,11.55
2023-05-19T16:02:39.394Z,11.48
2023-05-19T16:05:41.065Z,11.38
2023-05-19T16:08:42.750Z,11.35
2023-05-19T16:11:44.371Z,11.34
2023-05-19T16:14:46.051Z,11.31
2023-05-19T16:17:48.942Z,11.26
2023-05-19T16:20:51.264Z,11.20
2023-05-19T16:23:53.022Z,11.18
2023-05-19T16:26:54.797Z,11.12
2023-05-19T16:29:56.459Z,11.08
2023-05-19T16:32:58.364Z,11.03
2023-05-19T16:36:00.028Z,11.01
2023-05-19T16:39:01.992Z,11.00
2023-05-19T16:42:06.391Z,10.99
2023-05-19T16:45:08.963Z,10.99
2023-05-19T16:48:10.609Z,10.96
2023-05-19T16:51:12.430Z,10.95
2023-05-19T16:54:14.024Z,10.96
2023-05-19T16:57:15.713Z,10.96
2023-05-19T17:00:17.421Z,10.97
2023-05-19T17:03:19.620Z,10.96
2023-05-19T17:06:21.637Z,10.96
2023-05-19T17:09:23.465Z,10.98
2023-05-19T17:12:25.395Z,11.00
2023-05-19T17:15:27.394Z,11.00
2023-05-19T17:18:28.941Z,11.00
2023-05-19T17:21:30.720Z,10.98
2023-05-19T17:24:32.303Z,10.95
2023-05-19T17:27:34.012Z,10.94
2023-05-19T17:30:35.837Z,10.90
2023-05-19T17:33:37.902Z,10.85
2023-05-19T17:36:39.500Z,10.82
2023-05-19T17:39:41.087Z,10.80
2023-05-19T17:42:42.757Z,10.77
2023-05-19T17:45:44.885Z,10.67
2023-05-19T17:48:46.543Z,10.42
2023-05-19T17:51:48.537Z,10.15
2023-05-19T17:54:50.543Z,10.02
2023-05-19T17:57:52.937Z,10.02
2023-05-19T18:00:54.954Z,9.94
2023-05-19T18:03:57.000Z,9.94
2023-05-19T18:06:58.956Z,9.98
2023-05-19T18:10:00.527Z,9.89
2023-05-19T18:13:02.213Z,9.80
2023-05-19T18:16:03.911Z,9.82
2023-05-19T18:19:05.644Z,9.84
2023-05-19T18:22:07.517Z,9.81
2023-05-19T18:25:09.648Z,9.81
2023-05-19T18:28:11.316Z,9.80
2023-05-19T18:31:13.184Z,9.81
2023-05-19T18:34:14.789Z,9.84
2023-05-19T18:37:17.547Z,9.89
2023-05-19T18:40:19.366Z,9.90
2023-05-19T18:43:21.094Z,9.85
2023-05-19T18:46:22.986Z,9.80
2023-05-19T18:49:25.146Z,9.72
2023-05-19T18:52:27.010Z,9.71
2023-05-19T18:55:28.736Z,9.73
2023-05-19T18:58:30.409Z,9.66
2023-05-19T19:01:32.142Z,9.67
2023-05-19T19:04:33.952Z,9.68
2023-05-19T19:07:42.115Z,9.64
2023-05-19T19:10:43.776Z,9.66
2023-05-19T19:13:45.498Z,9.63
2023-05-19T19:16:47.226Z,9.71
2023-05-19T19:19:49.155Z,9.74
2023-05-19T19:22:50.889Z,9.74
2023-05-19T19:25:53.392Z,9.80
2023-05-19T19:28:56.217Z,9.86
2023-05-19T19:31:57.967Z,9.91
2023-05-19T19:34:59.701Z,9.94
2023-05-19T19:38:01.261Z,9.94
2023-05-19T19:41:03.162Z,9.92
2023-05-19T19:44:05.157Z,9.89
2023-05-19T19:47:06.784Z,9.89
2023-05-19T19:50:09.052Z,9.91
2023-05-19T19:53:10.754Z,9.90
2023-05-19T19:56:12.436Z,9.85
2023-05-19T19:59:14.057Z,9.85
2023-05-19T20:02:15.850Z,9.74
2023-05-19T20:05:17.796Z,9.64
2023-05-19T20:08:19.464Z,9.57
2023-05-19T20:11:21.145Z,9.61
2023-05-19T20:14:23.053Z,9.66
2023-05-19T20:17:24.766Z,9.68
2023-05-19T20:20:26.412Z,9.73
2023-05-19T20:23:28.277Z,9.75
2023-05-19T20:26:30.097Z,9.77
2023-05-19T20:29:31.657Z,9.80
2023-05-19T20:32:33.405Z,9.81
2023-05-19T20:35:44.197Z,9.79
2023-05-19T20:38:45.840Z,9.82
2023-05-19T20:41:47.396Z,9.84
2023-05-19T20:44:48.980Z,9.87
2023-05-19T20:47:53.155Z,9.87
2023-05-19T20:50:54.758Z,9.88
2023-05-19T20:53:56.429Z,9.89
2023-05-19T20:56:58.077Z,9.89
2023-05-19T20:59:59.716Z,9.88
2023-05-19T21:03:01.694Z,9.90
2023-05-19T21:06:03.464Z,9.90
2023-05-19T21:09:05.151Z,9.88
2023-05-19T21:12:06.988Z,9.88
2023-05-19T21:15:09.651Z,9.90
2023-05-19T21:18:12.213Z,9.89
2023-05-19T21:21:14.271Z,9.90
2023-05-19T21:24:16.125Z,9.91
2023-05-19T21:27:17.823Z,9.90
2023-05-19T21:30:19.602Z,9.90
2023-05-19T21:33:21.406Z,9.91
2023-05-19T21:36:23.090Z,9.92
2023-05-19T21:39:25.019Z,9.92
2023-05-19T21:42:27.402Z,9.91
2023-05-19T21:45:29.266Z,9.90
2023-05-19T21:48:30.888Z,9.90
2023-05-19T21:51:32.649Z,9.88
2023-05-19T21:54:34.818Z,9.86
2023-05-19T21:57:36.508Z,9.87
2023-05-19T22:00:38.224Z,9.88
2023-05-19T22:03:40.194Z,9.89
2023-05-19T22:06:43.066Z,9.90
2023-05-19T22:09:45.776Z,9.91
2023-05-19T22:12:48.532Z,9.91
2023-05-19T22:15:50.281Z,9.91
2023-05-19T22:18:52.004Z,9.93
2023-05-19T22:22:01.739Z,9.93
2023-05-19T22:25:08.138Z,9.92
2023-05-19T22:28:09.949Z,9.91
2023-05-19T22:31:11.611Z,9.91
2023-05-19T22:34:13.344Z,9.92
2023-05-19T22:37:15.021Z,9.93
2023-05-19T22:40:16.766Z,9.93
2023-05-19T22:43:18.438Z,9.94
2023-05-19T22:46:20.188Z,9.93
2023-05-19T22:49:21.956Z,9.91
2023-05-19T22:52:23.782Z,9.90
2023-05-19T22:55:25.794Z,9.88
2023-05-19T22:58:27.442Z,9.85
2023-05-19T23:01:29.815Z,9.83
2023-05-19T23:04:32.452Z,9.81
2023-05-19T23:07:34.187Z,9.82
2023-05-19T23:10:35.812Z,9.84
2023-05-19T23:13:37.427Z,9.85
2023-05-19T23:16:39.149Z,9.85
2023-05-19T23:19:40.890Z,9.87
2023-05-19T23:22:42.614Z,9.87
2023-05-19T23:25:44.240Z,9.88
2023-05-19T23:28:45.853Z,9.87
2023-05-19T23:31:47.469Z,9.88
2023-05-19T23:34:49.191Z,9.90
2023-05-19T23:37:50.859Z,9.89
2023-05-19T23:40:52.472Z,9.90
2023-05-19T23:43:54.259Z,9.90
2023-05-19T23:46:55.989Z,9.87
2023-05-19T23:49:57.667Z,9.87
2023-05-19T23:52:59.331Z,9.86
2023-05-19T23:56:01.136Z,9.85
2023-05-19T23:59:02.776Z,9.85
